Hightown, Virginia
Current Conditions -  °F | °C
As of 8:15 AM on Friday 31 Oct 2014 (Local Time) from KHSP Reporting Station
Clear Clear  
Wind Chill: 34°   Ceiling: Unl
Heat Index: 34°   Visibility: 10mi
Dew Point: 30°   Wind: 3mph
Humidity: 85%   Direction: 150°SSE
Pressure: 29.89"   Gusts: NA
Location:  38.3937°N, 79.6382°W
Report Text: KHSP 311215Z AUTO 15003KT 10SM CLR 01/M01 A2989 RMK AO2 T00101012
Loading
Personal Weather Stations






























Interactive Weather Map
Tropical Storm Tracking
New forecast layout! Learn more

10-Day Weather Forecast

Advertisements
Track Severe Weather on mobile